createdAt,value
2023-02-17T00:01:13.540Z,100323.75
2023-02-17T00:04:09.838Z,100327.41
2023-02-17T00:06:38.702Z,100323.94
2023-02-17T00:12:08.856Z,100315.91
2023-02-17T00:14:36.351Z,100310.00
2023-02-17T00:17:03.889Z,100309.69
2023-02-17T00:19:31.446Z,100302.78
2023-02-17T00:22:01.145Z,100286.66
2023-02-17T00:27:28.195Z,100280.94
2023-02-17T00:29:55.731Z,100290.66
2023-02-17T00:32:23.188Z,100278.53
2023-02-17T00:34:52.783Z,100277.78
2023-02-17T00:37:21.617Z,100265.47
2023-02-17T00:39:49.411Z,100270.75
2023-02-17T00:42:19.705Z,100274.59
2023-02-17T00:47:49.937Z,100284.56
2023-02-17T00:50:18.174Z,100283.13
2023-02-17T00:52:47.074Z,100280.13
2023-02-17T00:55:14.655Z,100269.06
2023-02-17T00:57:42.197Z,100279.94
2023-02-17T01:03:11.843Z,100268.59
2023-02-17T01:05:42.288Z,100261.41
2023-02-17T01:08:11.482Z,100267.47
2023-02-17T01:10:39.664Z,100260.91
2023-02-17T01:15:55.896Z,100265.72
2023-02-17T01:18:24.681Z,100264.91
2023-02-17T01:20:52.689Z,100256.31
2023-02-17T01:23:21.595Z,100254.41
2023-02-17T01:25:50.613Z,100250.63
2023-02-17T01:28:20.235Z,100245.25
2023-02-17T01:33:47.172Z,100249.09
2023-02-17T01:36:17.084Z,100251.41
2023-02-17T01:38:47.246Z,100242.59
2023-02-17T01:41:15.556Z,100235.50
2023-02-17T01:43:43.494Z,100236.81
2023-02-17T01:46:10.959Z,100222.97
2023-02-17T01:51:39.025Z,100204.91
2023-02-17T01:57:19.504Z,100215.63
2023-02-17T01:59:47.466Z,100217.13
2023-02-17T02:02:15.532Z,100205.97
2023-02-17T02:04:44.663Z,100199.84
2023-02-17T02:07:16.902Z,100201.84
2023-02-17T02:12:43.145Z,100194.84
2023-02-17T02:15:13.385Z,100187.38
2023-02-17T02:17:48.294Z,100185.59
2023-02-17T02:23:51.226Z,100181.38
2023-02-17T02:29:58.022Z,100173.81
2023-02-17T02:32:40.613Z,100163.50
2023-02-17T02:35:12.024Z,100171.34
2023-02-17T02:37:44.267Z,100170.19
2023-02-17T02:43:13.285Z,100171.34
2023-02-17T02:45:40.829Z,100178.81
2023-02-17T02:48:09.674Z,100182.81
2023-02-17T02:50:48.718Z,100172.00
2023-02-17T02:56:23.242Z,100162.38
2023-02-17T03:01:54.974Z,100166.38
2023-02-17T03:04:31.797Z,100172.84
2023-02-17T03:09:32.083Z,100167.53
2023-02-17T03:11:59.787Z,100168.41
2023-02-17T03:14:28.097Z,100165.38
2023-02-17T03:16:55.686Z,100160.59
2023-02-17T03:19:27.213Z,100160.75
2023-02-17T03:25:05.940Z,100130.19
2023-02-17T03:30:35.954Z,100128.53
2023-02-17T03:33:03.525Z,100128.19
2023-02-17T03:35:33.550Z,100109.44
2023-02-17T03:38:01.053Z,100107.28
2023-02-17T03:40:28.580Z,100094.00
2023-02-17T03:42:57.000Z,100113.78
2023-02-17T03:45:24.518Z,100110.13
2023-02-17T03:47:52.032Z,100121.59
2023-02-17T03:50:19.620Z,100117.75
2023-02-17T03:55:51.179Z,100105.28
2023-02-17T03:58:18.651Z,100105.66
2023-02-17T04:00:49.207Z,100104.47
2023-02-17T04:03:16.715Z,100095.03
2023-02-17T04:08:33.354Z,100105.81
2023-02-17T04:11:03.258Z,100103.31
2023-02-17T04:13:54.771Z,100110.97
2023-02-17T04:16:22.374Z,100100.31
2023-02-17T04:18:49.818Z,100102.97
2023-02-17T04:21:17.426Z,100103.47
2023-02-17T04:26:49.115Z,100106.13
2023-02-17T04:29:16.631Z,100110.78
2023-02-17T04:31:44.314Z,100123.41
2023-02-17T04:34:11.924Z,100125.91
2023-02-17T04:39:41.854Z,100124.06
2023-02-17T04:42:10.630Z,100116.78
2023-02-17T04:44:38.060Z,100129.22
2023-02-17T04:47:05.646Z,100106.28
2023-02-17T04:52:14.617Z,100114.09
2023-02-17T04:54:42.212Z,100112.44
2023-02-17T04:57:10.989Z,100104.97
2023-02-17T04:59:38.574Z,100106.81
2023-02-17T05:02:06.126Z,100117.41
2023-02-17T05:04:57.552Z,100094.16
2023-02-17T05:07:27.121Z,100082.91
2023-02-17T05:09:55.091Z,100075.91
2023-02-17T05:12:23.864Z,100065.97
2023-02-17T05:17:49.825Z,100080.41
2023-02-17T05:20:17.256Z,100074.59
2023-02-17T05:22:44.759Z,100072.94
2023-02-17T05:25:12.204Z,100058.16
2023-02-17T05:27:40.974Z,100058.78
2023-02-17T05:33:06.920Z,100053.84
2023-02-17T05:35:35.345Z,100053.34
2023-02-17T05:38:02.918Z,100071.25
2023-02-17T05:40:30.527Z,100063.09
2023-02-17T05:46:04.978Z,100062.97
2023-02-17T05:48:33.000Z,100063.81
2023-02-17T05:51:00.737Z,100049.19
2023-02-17T05:53:28.321Z,100033.09
2023-02-17T05:55:55.914Z,100020.50
2023-02-17T05:58:23.509Z,100022.63
2023-02-17T06:00:51.112Z,100005.03
2023-02-17T06:03:20.178Z,100009.53
2023-02-17T06:05:47.840Z,100009.56
2023-02-17T06:08:15.392Z,100017.16
2023-02-17T06:10:43.576Z,100009.53
2023-02-17T06:13:11.112Z,99994.94
2023-02-17T06:15:38.902Z,99989.13
2023-02-17T06:18:06.510Z,100008.06
2023-02-17T06:23:24.343Z,100004.03
2023-02-17T06:25:51.873Z,100004.72
2023-02-17T06:28:19.426Z,99987.66
2023-02-17T06:30:47.310Z,99988.25
2023-02-17T06:33:14.766Z,99988.59
2023-02-17T06:35:42.204Z,99991.75
2023-02-17T06:38:09.730Z,99988.44
2023-02-17T06:43:41.130Z,99987.75
2023-02-17T06:46:08.986Z,99994.56
2023-02-17T06:49:01.812Z,100030.03
2023-02-17T06:51:29.643Z,100036.19
2023-02-17T06:53:57.451Z,100036.53
2023-02-17T06:56:25.065Z,100044.03
2023-02-17T06:58:54.006Z,100053.28
2023-02-17T07:01:23.502Z,100052.78
2023-02-17T07:03:51.371Z,100021.53
2023-02-17T07:09:21.932Z,100026.38
2023-02-17T07:11:51.096Z,100017.59
2023-02-17T07:17:25.492Z,99989.00
2023-02-17T07:19:52.985Z,100004.28
2023-02-17T07:22:21.464Z,99997.81
2023-02-17T07:24:48.975Z,99989.16
2023-02-17T07:27:16.371Z,99980.16
2023-02-17T07:29:43.846Z,99966.91
2023-02-17T07:32:23.062Z,100015.53
2023-02-17T07:34:50.509Z,100005.03
2023-02-17T07:37:19.943Z,99977.66
2023-02-17T07:39:47.444Z,99970.47
2023-02-17T07:42:14.988Z,99958.91
2023-02-17T07:44:42.442Z,99937.72
2023-02-17T07:47:09.941Z,99942.09
2023-02-17T07:49:38.773Z,99961.16
2023-02-17T07:54:54.870Z,99958.50
2023-02-17T07:57:22.405Z,99976.34
2023-02-17T07:59:50.181Z,99987.09
2023-02-17T08:02:17.754Z,99969.47
2023-02-17T08:07:45.112Z,99974.88
2023-02-17T08:10:31.350Z,99974.53
2023-02-17T08:13:16.474Z,99956.53
2023-02-17T08:18:48.083Z,99955.25
2023-02-17T08:21:15.530Z,99956.22
2023-02-17T08:23:45.456Z,99959.88
2023-02-17T08:26:12.970Z,99952.03
2023-02-17T08:28:40.422Z,99923.56
2023-02-17T08:31:07.960Z,99946.03
2023-02-17T08:33:35.455Z,99918.97
2023-02-17T08:36:07.720Z,99920.63
2023-02-17T08:38:35.453Z,99921.66
2023-02-17T08:41:13.147Z,99907.50
2023-02-17T08:46:37.181Z,99901.03
2023-02-17T08:49:05.641Z,99899.03
2023-02-17T08:51:33.116Z,99895.88
2023-02-17T08:54:01.500Z,99903.13
2023-02-17T08:59:38.088Z,99910.50
2023-02-17T09:02:05.677Z,99916.59
2023-02-17T09:04:33.391Z,99894.13
2023-02-17T09:07:01.063Z,99905.38
2023-02-17T09:09:29.237Z,99912.13
2023-02-17T09:14:50.609Z,99918.03
2023-02-17T09:17:18.338Z,99920.28
2023-02-17T09:19:45.868Z,99924.72
2023-02-17T09:22:30.588Z,99923.06
2023-02-17T09:25:22.780Z,99930.44
2023-02-17T09:27:50.311Z,99922.28
2023-02-17T09:30:19.141Z,99925.41
2023-02-17T09:32:46.700Z,99926.59
2023-02-17T09:35:15.060Z,99932.78
2023-02-17T09:37:42.619Z,99925.03
2023-02-17T09:42:59.877Z,99942.16
2023-02-17T09:48:30.102Z,99967.88
2023-02-17T09:50:59.564Z,99972.06
2023-02-17T09:56:32.628Z,99972.19
2023-02-17T09:59:04.294Z,99987.81
2023-02-17T10:01:34.358Z,99969.28
2023-02-17T10:07:03.460Z,99961.66
2023-02-17T10:09:34.757Z,99966.16
2023-02-17T10:12:04.170Z,99957.34
2023-02-17T10:14:34.559Z,99938.91
2023-02-17T10:17:06.467Z,99965.38
2023-02-17T10:19:37.233Z,99955.91
2023-02-17T10:22:08.542Z,99967.75
2023-02-17T10:27:38.374Z,99940.91
2023-02-17T10:30:17.227Z,99943.44
2023-02-17T10:33:14.785Z,99929.09
2023-02-17T10:35:50.522Z,99943.81
2023-02-17T10:38:19.841Z,99951.31
2023-02-17T10:40:48.806Z,99944.97
2023-02-17T10:43:22.176Z,99937.63
2023-02-17T10:45:51.143Z,99945.72
2023-02-17T10:48:23.021Z,99934.94
2023-02-17T10:50:52.259Z,99927.50
2023-02-17T10:56:25.511Z,99924.25
2023-02-17T10:58:56.070Z,99925.78
2023-02-17T11:01:24.018Z,99913.16
2023-02-17T11:04:02.639Z,99907.13
2023-02-17T11:06:30.923Z,99895.31
2023-02-17T11:12:02.458Z,99894.94
2023-02-17T11:14:31.286Z,99892.78
2023-02-17T11:20:03.938Z,99903.00
2023-02-17T11:22:35.291Z,99910.69
2023-02-17T11:25:06.411Z,99897.47
2023-02-17T11:27:33.871Z,99908.41
2023-02-17T11:30:09.875Z,99901.28
2023-02-17T11:32:37.467Z,99891.66
2023-02-17T11:35:25.354Z,99899.25
2023-02-17T11:37:54.174Z,99910.56
2023-02-17T11:40:26.919Z,99890.06
2023-02-17T11:42:55.455Z,99894.34
2023-02-17T11:45:24.252Z,99889.69
2023-02-17T11:48:02.676Z,99873.88
2023-02-17T11:53:23.625Z,99869.66
2023-02-17T11:59:05.603Z,99868.91
2023-02-17T12:01:50.184Z,99865.50
2023-02-17T12:04:27.977Z,99836.47
2023-02-17T12:07:08.807Z,99825.63
2023-02-17T12:09:47.196Z,99827.28
2023-02-17T12:12:21.416Z,99862.63
2023-02-17T12:15:02.469Z,99847.47
2023-02-17T12:17:39.057Z,99864.69
2023-02-17T12:20:15.750Z,99871.69
2023-02-17T12:22:46.793Z,99870.56
2023-02-17T12:25:23.918Z,99889.38
2023-02-17T12:28:00.940Z,99900.91
2023-02-17T12:30:37.551Z,99872.97
2023-02-17T12:33:16.645Z,99879.88
2023-02-17T12:35:50.865Z,99877.38
2023-02-17T12:38:20.263Z,99873.84
2023-02-17T12:43:42.362Z,99872.75
2023-02-17T12:46:13.018Z,99888.69
2023-02-17T12:48:42.961Z,99873.34
2023-02-17T12:51:13.000Z,99886.84
2023-02-17T12:56:38.610Z,99894.38
2023-02-17T13:02:02.990Z,99892.44
2023-02-17T13:07:43.500Z,99894.53
2023-02-17T13:10:21.851Z,99889.03
2023-02-17T13:13:06.413Z,99899.31
2023-02-17T13:15:37.404Z,99922.19
2023-02-17T13:21:03.027Z,99910.50
2023-02-17T13:23:39.242Z,99925.06
2023-02-17T13:26:35.478Z,99927.84
2023-02-17T13:29:18.055Z,99921.47
2023-02-17T13:31:53.576Z,99942.22
2023-02-17T13:34:30.169Z,99956.50
2023-02-17T13:36:58.303Z,99945.00
2023-02-17T13:39:34.603Z,99952.56
2023-02-17T13:42:02.750Z,99964.25
2023-02-17T13:44:39.276Z,99970.06
2023-02-17T13:47:13.866Z,99985.13
2023-02-17T13:49:41.673Z,99981.25
2023-02-17T13:54:59.149Z,99981.91
2023-02-17T13:57:28.575Z,99979.91
2023-02-17T14:00:09.009Z,99990.00
2023-02-17T14:02:40.063Z,99998.03
2023-02-17T14:08:06.182Z,99974.41
2023-02-17T14:13:37.264Z,99976.97
2023-02-17T14:16:07.449Z,99968.72
2023-02-17T14:18:37.742Z,99980.56
2023-02-17T14:21:07.943Z,99985.28
2023-02-17T14:26:37.819Z,99959.72
2023-02-17T14:29:07.553Z,99957.84
2023-02-17T14:31:40.601Z,99976.19
2023-02-17T14:34:10.407Z,99975.44
2023-02-17T14:39:25.644Z,99975.25
2023-02-17T14:41:53.069Z,99975.78
2023-02-17T14:47:19.980Z,99971.22
2023-02-17T14:49:47.425Z,99986.72
2023-02-17T14:52:20.058Z,99999.66
2023-02-17T14:57:49.664Z,100011.56
2023-02-17T15:00:17.664Z,100008.28
2023-02-17T15:02:46.526Z,100022.59
2023-02-17T15:05:13.928Z,100009.91
2023-02-17T15:07:42.211Z,100015.59
2023-02-17T15:10:18.292Z,100023.22
2023-02-17T15:12:45.798Z,100008.91
2023-02-17T15:15:18.471Z,100016.13
2023-02-17T15:21:00.000Z,100039.44
2023-02-17T15:23:31.691Z,100007.56
2023-02-17T15:26:00.234Z,100042.16
2023-02-17T15:28:27.641Z,100041.16
2023-02-17T15:30:56.670Z,100029.97
2023-02-17T15:33:24.998Z,100034.63
2023-02-17T15:35:54.383Z,100022.00
2023-02-17T15:38:24.326Z,100045.06
2023-02-17T15:40:51.968Z,100037.47
2023-02-17T15:46:22.652Z,100049.31
2023-02-17T15:48:50.613Z,100062.13
2023-02-17T15:51:19.920Z,100056.66
2023-02-17T15:53:48.848Z,100055.41
2023-02-17T15:56:20.383Z,100060.44
2023-02-17T15:58:48.753Z,100054.84
2023-02-17T16:01:19.644Z,100056.31
2023-02-17T16:03:47.230Z,100052.75
2023-02-17T16:06:14.636Z,100069.28
2023-02-17T16:08:42.085Z,100054.28
2023-02-17T16:11:13.271Z,100054.28
2023-02-17T16:13:40.985Z,100065.78
2023-02-17T16:16:16.137Z,100068.91
2023-02-17T16:19:07.574Z,100057.50
2023-02-17T16:21:35.122Z,100073.22
2023-02-17T16:26:52.328Z,100096.13
2023-02-17T16:29:22.336Z,100099.56
2023-02-17T16:31:49.940Z,100094.38
2023-02-17T16:34:20.709Z,100098.09
2023-02-17T16:36:48.749Z,100104.06
2023-02-17T16:39:17.402Z,100113.59
2023-02-17T16:41:45.456Z,100118.63
2023-02-17T16:44:15.069Z,100122.13
2023-02-17T16:46:47.292Z,100129.78
2023-02-17T16:49:20.223Z,100131.50
2023-02-17T16:51:47.847Z,100137.03
2023-02-17T16:57:03.788Z,100142.50
2023-02-17T16:59:32.873Z,100154.09
2023-02-17T17:02:01.573Z,100150.09
2023-02-17T17:04:29.202Z,100157.09
2023-02-17T17:10:06.846Z,100159.03
2023-02-17T17:12:33.121Z,100157.53
2023-02-17T17:15:38.554Z,100166.34
2023-02-17T17:18:08.876Z,100166.69
2023-02-17T17:20:41.680Z,100185.13
2023-02-17T17:23:13.581Z,100186.47
2023-02-17T17:25:42.981Z,100181.06
2023-02-17T17:28:13.602Z,100172.31
2023-02-17T17:30:41.161Z,100179.59
2023-02-17T17:33:09.995Z,100186.41
2023-02-17T17:35:38.080Z,100203.72
2023-02-17T17:40:55.622Z,100208.06
2023-02-17T17:43:24.076Z,100192.44
2023-02-17T17:45:52.100Z,100209.78
2023-02-17T17:48:20.942Z,100195.34
2023-02-17T17:53:36.789Z,100189.25
2023-02-17T17:56:04.722Z,100190.38
2023-02-17T17:58:33.599Z,100174.59
2023-02-17T18:01:01.913Z,100197.03
2023-02-17T18:03:30.670Z,100186.53
2023-02-17T18:05:58.705Z,100189.03
2023-02-17T18:08:26.235Z,100190.50
2023-02-17T18:10:53.713Z,100198.16
2023-02-17T18:16:10.123Z,100200.81
2023-02-17T18:18:39.581Z,100198.31
2023-02-17T18:21:07.071Z,100235.94
2023-02-17T18:23:34.542Z,100249.41
2023-02-17T18:26:02.146Z,100233.28
2023-02-17T18:28:29.726Z,100252.00
2023-02-17T18:30:57.300Z,100264.53
2023-02-17T18:33:35.518Z,100240.28
2023-02-17T18:36:09.039Z,100278.97
2023-02-17T18:41:38.698Z,100283.69
2023-02-17T18:44:06.562Z,100291.00
2023-02-17T18:46:34.291Z,100289.50
2023-02-17T18:49:01.882Z,100300.47
2023-02-17T18:54:33.014Z,100314.78
2023-02-17T18:57:01.809Z,100338.06
2023-02-17T18:59:29.299Z,100329.56
2023-02-17T19:01:56.740Z,100343.47
2023-02-17T19:04:24.595Z,100347.59
2023-02-17T19:06:52.121Z,100346.53
2023-02-17T19:09:19.547Z,100347.28
2023-02-17T19:14:47.894Z,100352.81
2023-02-17T19:17:18.225Z,100355.78
2023-02-17T19:19:45.930Z,100361.84
2023-02-17T19:22:13.358Z,100367.38
2023-02-17T19:27:40.687Z,100371.00
2023-02-17T19:30:11.876Z,100369.06
2023-02-17T19:32:40.375Z,100377.16
2023-02-17T19:35:10.618Z,100379.34
2023-02-17T19:37:38.980Z,100379.47
2023-02-17T19:40:07.886Z,100371.00
2023-02-17T19:42:35.595Z,100373.22
2023-02-17T19:48:07.421Z,100370.25
2023-02-17T19:50:34.856Z,100377.06
2023-02-17T19:53:02.385Z,100380.69
2023-02-17T19:55:29.817Z,100386.53
2023-02-17T19:57:57.282Z,100388.47
2023-02-17T20:00:25.075Z,100392.97
2023-02-17T20:02:52.570Z,100392.34
2023-02-17T20:05:21.443Z,100395.81
2023-02-17T20:07:50.401Z,100404.53
2023-02-17T20:13:06.683Z,100407.91
2023-02-17T20:15:34.114Z,100408.88
2023-02-17T20:18:01.578Z,100418.63
2023-02-17T20:20:30.325Z,100409.31
2023-02-17T20:22:57.750Z,100418.41
2023-02-17T20:25:25.271Z,100411.38
2023-02-17T20:27:53.130Z,100413.81
2023-02-17T20:33:22.666Z,100423.13
2023-02-17T20:35:51.499Z,100428.75
2023-02-17T20:38:19.006Z,100420.72
2023-02-17T20:40:46.491Z,100419.72
2023-02-17T20:43:15.256Z,100422.84
2023-02-17T20:45:43.161Z,100423.81
2023-02-17T20:51:13.993Z,100432.75
2023-02-17T20:53:41.508Z,100438.50
2023-02-17T20:56:13.002Z,100441.75
2023-02-17T20:58:40.935Z,100451.84
2023-02-17T21:04:13.913Z,100456.09
2023-02-17T21:06:43.165Z,100454.59
2023-02-17T21:12:02.180Z,100448.13
2023-02-17T21:14:29.661Z,100447.78
2023-02-17T21:16:57.150Z,100441.88
2023-02-17T21:19:24.778Z,100443.56
2023-02-17T21:24:52.849Z,100455.94
2023-02-17T21:27:20.313Z,100434.28
2023-02-17T21:29:47.979Z,100434.13
2023-02-17T21:32:15.504Z,100431.69
2023-02-17T21:37:45.065Z,100438.69
2023-02-17T21:40:13.107Z,100449.88
2023-02-17T21:42:55.361Z,100453.50
2023-02-17T21:45:23.206Z,100456.16
2023-02-17T21:50:49.630Z,100453.81
2023-02-17T21:53:18.483Z,100465.50
2023-02-17T21:55:47.144Z,100466.22
2023-02-17T21:58:14.821Z,100467.44
2023-02-17T22:00:42.309Z,100476.16
2023-02-17T22:03:09.791Z,100477.97
2023-02-17T22:05:37.216Z,100477.97
2023-02-17T22:08:05.062Z,100471.75
2023-02-17T22:10:37.443Z,100476.03
2023-02-17T22:13:06.019Z,100466.81
2023-02-17T22:15:33.559Z,100482.09
2023-02-17T22:18:01.153Z,100478.72
2023-02-17T22:20:29.148Z,100479.25
2023-02-17T22:22:56.354Z,100472.00
2023-02-17T22:25:24.309Z,100478.84
2023-02-17T22:27:53.082Z,100475.16
2023-02-17T22:30:20.829Z,100486.34
2023-02-17T22:32:48.302Z,100485.81
2023-02-17T22:35:15.895Z,100485.81
2023-02-17T22:40:31.779Z,100480.66
2023-02-17T22:43:00.592Z,100482.28
2023-02-17T22:45:28.106Z,100480.44
2023-02-17T22:47:55.646Z,100469.84
2023-02-17T22:50:23.143Z,100463.31
2023-02-17T22:55:52.500Z,100466.34
2023-02-17T22:58:21.718Z,100461.78
2023-02-17T23:00:49.345Z,100456.28
2023-02-17T23:03:17.211Z,100464.91
2023-02-17T23:05:45.330Z,100467.81
2023-02-17T23:08:12.926Z,100464.31
2023-02-17T23:13:30.089Z,100464.84
2023-02-17T23:15:57.547Z,100467.25
2023-02-17T23:18:25.050Z,100483.69
2023-02-17T23:20:52.619Z,100479.03
2023-02-17T23:26:15.229Z,100476.47
2023-02-17T23:28:44.310Z,100478.66
2023-02-17T23:34:00.648Z,100457.94
2023-02-17T23:36:28.135Z,100459.28
2023-02-17T23:38:56.482Z,100462.84
2023-02-17T23:41:23.997Z,100453.97
2023-02-17T23:43:52.790Z,100456.53
2023-02-17T23:46:21.230Z,100458.81
2023-02-17T23:48:48.851Z,100448.38
2023-02-17T23:51:18.674Z,100446.28
2023-02-17T23:56:30.966Z,100447.63
2023-02-17T23:59:00.076Z,100455.56
